sensor_id;sensor_type;location;lat;lon;timestamp;P1;durP1;ratioP1;P2;durP2;ratioP2
11100;SDS011;5604;50.722;7.078;2023-03-31T00:02:00;5.53;;;1.70;;
11100;SDS011;5604;50.722;7.078;2023-03-31T00:04:28;3.67;;;1.57;;
11100;SDS011;5604;50.722;7.078;2023-03-31T00:06:59;4.37;;;1.40;;
11100;SDS011;5604;50.722;7.078;2023-03-31T00:09:30;3.87;;;1.30;;
11100;SDS011;5604;50.722;7.078;2023-03-31T00:12:03;3.67;;;1.30;;
11100;SDS011;5604;50.722;7.078;2023-03-31T00:14:31;2.43;;;1.10;;
11100;SDS011;5604;50.722;7.078;2023-03-31T00:16:59;2.53;;;1.20;;
11100;SDS011;5604;50.722;7.078;2023-03-31T00:19:31;4.47;;;1.83;;
11100;SDS011;5604;50.722;7.078;2023-03-31T00:21:59;1.70;;;1.10;;
11100;SDS011;5604;50.722;7.078;2023-03-31T00:24:28;4.47;;;1.30;;
11100;SDS011;5604;50.722;7.078;2023-03-31T00:26:58;3.30;;;1.83;;
11100;SDS011;5604;50.722;7.078;2023-03-31T00:29:28;1.43;;;1.17;;
11100;SDS011;5604;50.722;7.078;2023-03-31T00:32:05;4.23;;;1.17;;
11100;SDS011;5604;50.722;7.078;2023-03-31T00:34:39;3.67;;;1.40;;
11100;SDS011;5604;50.722;7.078;2023-03-31T00:37:07;2.87;;;1.30;;
11100;SDS011;5604;50.722;7.078;2023-03-31T00:39:38;3.87;;;1.50;;
11100;SDS011;5604;50.722;7.078;2023-03-31T00:42:11;2.30;;;1.10;;
11100;SDS011;5604;50.722;7.078;2023-03-31T00:47:50;2.13;;;1.27;;
11100;SDS011;5604;50.722;7.078;2023-03-31T00:50:21;3.23;;;1.30;;
11100;SDS011;5604;50.722;7.078;2023-03-31T00:52:53;3.87;;;1.20;;
11100;SDS011;5604;50.722;7.078;2023-03-31T00:55:27;2.50;;;1.27;;
11100;SDS011;5604;50.722;7.078;2023-03-31T00:58:01;2.83;;;1.40;;
11100;SDS011;5604;50.722;7.078;2023-03-31T01:00:33;4.43;;;1.33;;
11100;SDS011;5604;50.722;7.078;2023-03-31T01:03:04;5.47;;;1.47;;
11100;SDS011;5604;50.722;7.078;2023-03-31T01:05:46;6.83;;;2.10;;
11100;SDS011;5604;50.722;7.078;2023-03-31T01:08:19;3.03;;;1.30;;
11100;SDS011;5604;50.722;7.078;2023-03-31T01:10:50;4.93;;;1.60;;
11100;SDS011;5604;50.722;7.078;2023-03-31T01:13:23;5.93;;;1.80;;
11100;SDS011;5604;50.722;7.078;2023-03-31T01:15:53;6.43;;;1.87;;
11100;SDS011;5604;50.722;7.078;2023-03-31T01:18:24;4.43;;;1.33;;
11100;SDS011;5604;50.722;7.078;2023-03-31T01:21:06;6.87;;;1.90;;
11100;SDS011;5604;50.722;7.078;2023-03-31T01:23:52;6.53;;;1.87;;
11100;SDS011;5604;50.722;7.078;2023-03-31T01:27:00;5.63;;;1.83;;
11100;SDS011;5604;50.722;7.078;2023-03-31T01:29:43;4.37;;;1.70;;
11100;SDS011;5604;50.722;7.078;2023-03-31T01:32:34;5.87;;;1.80;;
11100;SDS011;5604;50.722;7.078;2023-03-31T01:35:41;6.90;;;2.07;;
11100;SDS011;5604;50.722;7.078;2023-03-31T01:38:32;9.93;;;2.27;;
11100;SDS011;5604;50.722;7.078;2023-03-31T01:41:30;5.07;;;1.70;;
11100;SDS011;5604;50.722;7.078;2023-03-31T01:44:07;3.83;;;1.67;;
11100;SDS011;5604;50.722;7.078;2023-03-31T01:46:40;8.17;;;1.90;;
11100;SDS011;5604;50.722;7.078;2023-03-31T01:49:14;9.00;;;2.17;;
11100;SDS011;5604;50.722;7.078;2023-03-31T01:51:47;6.37;;;2.10;;
11100;SDS011;5604;50.722;7.078;2023-03-31T01:54:18;5.80;;;2.10;;
11100;SDS011;5604;50.722;7.078;2023-03-31T01:56:48;3.90;;;1.90;;
11100;SDS011;5604;50.722;7.078;2023-03-31T01:59:21;6.57;;;2.07;;
11100;SDS011;5604;50.722;7.078;2023-03-31T02:01:52;5.57;;;2.20;;
11100;SDS011;5604;50.722;7.078;2023-03-31T02:04:25;7.17;;;2.27;;
11100;SDS011;5604;50.722;7.078;2023-03-31T02:07:00;7.37;;;2.00;;
11100;SDS011;5604;50.722;7.078;2023-03-31T02:09:30;7.83;;;2.20;;
11100;SDS011;5604;50.722;7.078;2023-03-31T02:12:07;6.60;;;2.20;;
11100;SDS011;5604;50.722;7.078;2023-03-31T02:14:37;10.03;;;2.17;;
11100;SDS011;5604;50.722;7.078;2023-03-31T02:17:10;8.43;;;2.00;;
11100;SDS011;5604;50.722;7.078;2023-03-31T02:19:47;4.83;;;1.97;;
11100;SDS011;5604;50.722;7.078;2023-03-31T02:22:22;7.97;;;2.43;;
11100;SDS011;5604;50.722;7.078;2023-03-31T02:24:51;6.40;;;2.00;;
11100;SDS011;5604;50.722;7.078;2023-03-31T02:27:22;7.73;;;2.40;;
11100;SDS011;5604;50.722;7.078;2023-03-31T02:29:52;8.43;;;2.33;;
11100;SDS011;5604;50.722;7.078;2023-03-31T02:32:21;6.53;;;2.43;;
11100;SDS011;5604;50.722;7.078;2023-03-31T02:34:55;4.60;;;2.03;;
11100;SDS011;5604;50.722;7.078;2023-03-31T02:37:27;3.17;;;1.70;;
11100;SDS011;5604;50.722;7.078;2023-03-31T02:39:56;5.53;;;1.90;;
11100;SDS011;5604;50.722;7.078;2023-03-31T02:42:27;7.10;;;2.17;;
11100;SDS011;5604;50.722;7.078;2023-03-31T02:45:00;5.33;;;2.00;;
11100;SDS011;5604;50.722;7.078;2023-03-31T02:47:29;8.27;;;2.10;;
11100;SDS011;5604;50.722;7.078;2023-03-31T02:49:59;5.57;;;2.07;;
11100;SDS011;5604;50.722;7.078;2023-03-31T02:52:35;10.57;;;2.30;;
11100;SDS011;5604;50.722;7.078;2023-03-31T02:55:14;6.97;;;2.03;;
11100;SDS011;5604;50.722;7.078;2023-03-31T03:01:09;4.33;;;2.00;;
11100;SDS011;5604;50.722;7.078;2023-03-31T03:03:44;5.10;;;1.87;;
11100;SDS011;5604;50.722;7.078;2023-03-31T03:06:27;5.43;;;2.00;;
11100;SDS011;5604;50.722;7.078;2023-03-31T03:09:16;6.40;;;2.40;;
11100;SDS011;5604;50.722;7.078;2023-03-31T03:11:58;6.70;;;1.97;;
11100;SDS011;5604;50.722;7.078;2023-03-31T03:14:35;7.43;;;1.90;;
11100;SDS011;5604;50.722;7.078;2023-03-31T03:17:09;5.40;;;2.13;;
11100;SDS011;5604;50.722;7.078;2023-03-31T03:19:40;6.20;;;2.07;;
11100;SDS011;5604;50.722;7.078;2023-03-31T03:22:16;8.27;;;2.10;;
11100;SDS011;5604;50.722;7.078;2023-03-31T03:24:44;7.57;;;2.33;;
11100;SDS011;5604;50.722;7.078;2023-03-31T03:27:15;7.17;;;2.33;;
11100;SDS011;5604;50.722;7.078;2023-03-31T03:29:43;5.67;;;2.40;;
11100;SDS011;5604;50.722;7.078;2023-03-31T03:32:22;7.63;;;2.30;;
11100;SDS011;5604;50.722;7.078;2023-03-31T03:34:54;7.33;;;2.00;;
11100;SDS011;5604;50.722;7.078;2023-03-31T03:37:22;6.70;;;1.67;;
11100;SDS011;5604;50.722;7.078;2023-03-31T03:39:52;5.30;;;2.00;;
11100;SDS011;5604;50.722;7.078;2023-03-31T03:42:23;7.40;;;2.50;;
11100;SDS011;5604;50.722;7.078;2023-03-31T03:44:51;6.27;;;1.80;;
11100;SDS011;5604;50.722;7.078;2023-03-31T03:47:19;5.47;;;1.97;;
11100;SDS011;5604;50.722;7.078;2023-03-31T03:49:49;5.47;;;1.67;;
11100;SDS011;5604;50.722;7.078;2023-03-31T03:52:17;2.83;;;1.70;;
11100;SDS011;5604;50.722;7.078;2023-03-31T03:54:46;5.43;;;1.60;;
11100;SDS011;5604;50.722;7.078;2023-03-31T03:57:14;3.97;;;1.77;;
11100;SDS011;5604;50.722;7.078;2023-03-31T03:59:44;3.03;;;1.53;;
11100;SDS011;5604;50.722;7.078;2023-03-31T04:02:12;4.20;;;1.80;;
11100;SDS011;5604;50.722;7.078;2023-03-31T04:04:44;2.40;;;1.50;;
11100;SDS011;5604;50.722;7.078;2023-03-31T04:07:14;3.90;;;1.60;;
11100;SDS011;5604;50.722;7.078;2023-03-31T04:09:42;4.33;;;1.53;;
11100;SDS011;5604;50.722;7.078;2023-03-31T04:12:10;4.67;;;1.67;;
11100;SDS011;5604;50.722;7.078;2023-03-31T04:14:39;5.20;;;1.70;;
11100;SDS011;5604;50.722;7.078;2023-03-31T04:17:07;3.70;;;1.60;;
11100;SDS011;5604;50.722;7.078;2023-03-31T04:19:41;5.87;;;1.67;;
11100;SDS011;5604;50.722;7.078;2023-03-31T04:22:17;4.67;;;1.80;;
11100;SDS011;5604;50.722;7.078;2023-03-31T04:24:46;4.70;;;1.73;;
11100;SDS011;5604;50.722;7.078;2023-03-31T04:27:18;2.90;;;1.70;;
11100;SDS011;5604;50.722;7.078;2023-03-31T04:29:46;3.97;;;1.43;;
11100;SDS011;5604;50.722;7.078;2023-03-31T04:32:20;4.53;;;1.77;;
11100;SDS011;5604;50.722;7.078;2023-03-31T04:34:50;3.90;;;1.80;;
11100;SDS011;5604;50.722;7.078;2023-03-31T04:37:32;3.43;;;1.73;;
11100;SDS011;5604;50.722;7.078;2023-03-31T04:40:00;2.10;;;1.57;;
11100;SDS011;5604;50.722;7.078;2023-03-31T04:42:34;3.13;;;1.40;;
11100;SDS011;5604;50.722;7.078;2023-03-31T04:45:03;4.47;;;1.63;;
11100;SDS011;5604;50.722;7.078;2023-03-31T04:47:34;4.37;;;1.30;;
11100;SDS011;5604;50.722;7.078;2023-03-31T04:50:03;2.43;;;1.40;;
11100;SDS011;5604;50.722;7.078;2023-03-31T04:52:33;5.03;;;1.70;;
11100;SDS011;5604;50.722;7.078;2023-03-31T04:55:04;5.73;;;1.87;;
11100;SDS011;5604;50.722;7.078;2023-03-31T04:57:32;5.13;;;1.80;;
11100;SDS011;5604;50.722;7.078;2023-03-31T05:00:00;6.10;;;1.60;;
11100;SDS011;5604;50.722;7.078;2023-03-31T05:02:36;3.87;;;1.50;;
11100;SDS011;5604;50.722;7.078;2023-03-31T05:05:04;3.43;;;1.80;;
11100;SDS011;5604;50.722;7.078;2023-03-31T05:07:34;5.63;;;1.90;;
11100;SDS011;5604;50.722;7.078;2023-03-31T05:10:05;4.77;;;1.80;;
11100;SDS011;5604;50.722;7.078;2023-03-31T05:12:34;2.80;;;1.60;;
11100;SDS011;5604;50.722;7.078;2023-03-31T05:15:04;3.83;;;1.50;;
11100;SDS011;5604;50.722;7.078;2023-03-31T05:17:34;2.37;;;1.43;;
11100;SDS011;5604;50.722;7.078;2023-03-31T05:20:05;5.70;;;1.77;;
11100;SDS011;5604;50.722;7.078;2023-03-31T05:22:36;2.50;;;1.27;;
11100;SDS011;5604;50.722;7.078;2023-03-31T05:25:09;3.10;;;1.53;;
11100;SDS011;5604;50.722;7.078;2023-03-31T05:27:40;2.80;;;1.47;;
11100;SDS011;5604;50.722;7.078;2023-03-31T05:30:08;2.63;;;1.10;;
11100;SDS011;5604;50.722;7.078;2023-03-31T05:32:39;2.13;;;1.00;;
11100;SDS011;5604;50.722;7.078;2023-03-31T05:35:09;2.07;;;1.20;;
11100;SDS011;5604;50.722;7.078;2023-03-31T05:37:40;1.87;;;1.00;;
11100;SDS011;5604;50.722;7.078;2023-03-31T05:40:09;2.90;;;0.90;;
11100;SDS011;5604;50.722;7.078;2023-03-31T05:42:42;0.97;;;0.70;;
11100;SDS011;5604;50.722;7.078;2023-03-31T05:45:17;0.80;;;0.80;;
11100;SDS011;5604;50.722;7.078;2023-03-31T05:47:45;2.40;;;1.00;;
11100;SDS011;5604;50.722;7.078;2023-03-31T05:50:13;2.50;;;0.97;;
11100;SDS011;5604;50.722;7.078;2023-03-31T05:52:43;1.53;;;0.90;;
11100;SDS011;5604;50.722;7.078;2023-03-31T05:55:17;1.40;;;0.90;;
11100;SDS011;5604;50.722;7.078;2023-03-31T05:57:45;2.03;;;0.97;;
11100;SDS011;5604;50.722;7.078;2023-03-31T06:00:13;2.60;;;0.90;;
11100;SDS011;5604;50.722;7.078;2023-03-31T06:02:43;1.33;;;0.80;;
11100;SDS011;5604;50.722;7.078;2023-03-31T06:05:11;2.33;;;0.90;;
11100;SDS011;5604;50.722;7.078;2023-03-31T06:07:39;1.17;;;0.90;;
11100;SDS011;5604;50.722;7.078;2023-03-31T06:10:11;0.60;;;0.60;;
11100;SDS011;5604;50.722;7.078;2023-03-31T06:12:42;1.43;;;0.80;;
11100;SDS011;5604;50.722;7.078;2023-03-31T06:15:12;1.03;;;0.80;;
11100;SDS011;5604;50.722;7.078;2023-03-31T06:17:43;0.97;;;0.70;;
11100;SDS011;5604;50.722;7.078;2023-03-31T06:20:17;0.93;;;0.80;;
11100;SDS011;5604;50.722;7.078;2023-03-31T06:22:55;1.03;;;0.60;;
11100;SDS011;5604;50.722;7.078;2023-03-31T06:25:26;0.87;;;0.60;;
11100;SDS011;5604;50.722;7.078;2023-03-31T06:28:16;2.43;;;1.00;;
11100;SDS011;5604;50.722;7.078;2023-03-31T06:30:46;0.67;;;0.67;;
11100;SDS011;5604;50.722;7.078;2023-03-31T06:33:14;0.97;;;0.73;;
11100;SDS011;5604;50.722;7.078;2023-03-31T06:35:44;2.80;;;0.77;;
11100;SDS011;5604;50.722;7.078;2023-03-31T06:38:14;2.27;;;0.70;;
11100;SDS011;5604;50.722;7.078;2023-03-31T06:40:49;2.07;;;0.77;;
11100;SDS011;5604;50.722;7.078;2023-03-31T06:43:17;0.93;;;0.63;;
11100;SDS011;5604;50.722;7.078;2023-03-31T06:45:46;0.70;;;0.70;;
11100;SDS011;5604;50.722;7.078;2023-03-31T06:48:21;1.40;;;0.70;;
11100;SDS011;5604;50.722;7.078;2023-03-31T06:50:55;1.53;;;0.80;;
11100;SDS011;5604;50.722;7.078;2023-03-31T06:53:31;0.70;;;0.70;;
11100;SDS011;5604;50.722;7.078;2023-03-31T06:56:01;1.87;;;0.83;;
11100;SDS011;5604;50.722;7.078;2023-03-31T06:58:34;0.60;;;0.60;;
11100;SDS011;5604;50.722;7.078;2023-03-31T07:01:07;0.97;;;0.70;;
11100;SDS011;5604;50.722;7.078;2023-03-31T07:03:37;0.93;;;0.80;;
11100;SDS011;5604;50.722;7.078;2023-03-31T07:06:11;1.33;;;0.70;;
11100;SDS011;5604;50.722;7.078;2023-03-31T07:08:48;1.60;;;1.00;;
11100;SDS011;5604;50.722;7.078;2023-03-31T07:11:19;1.57;;;1.30;;
11100;SDS011;5604;50.722;7.078;2023-03-31T07:13:47;0.60;;;0.60;;
11100;SDS011;5604;50.722;7.078;2023-03-31T07:16:26;0.60;;;0.60;;
11100;SDS011;5604;50.722;7.078;2023-03-31T07:18:59;0.60;;;0.60;;
11100;SDS011;5604;50.722;7.078;2023-03-31T07:21:29;1.10;;;0.90;;
11100;SDS011;5604;50.722;7.078;2023-03-31T07:24:00;1.80;;;0.97;;
11100;SDS011;5604;50.722;7.078;2023-03-31T07:26:29;0.87;;;0.63;;
11100;SDS011;5604;50.722;7.078;2023-03-31T07:28:57;0.60;;;0.60;;
11100;SDS011;5604;50.722;7.078;2023-03-31T07:31:26;0.77;;;0.60;;
11100;SDS011;5604;50.722;7.078;2023-03-31T07:33:57;1.23;;;0.87;;
11100;SDS011;5604;50.722;7.078;2023-03-31T07:36:29;1.63;;;0.80;;
11100;SDS011;5604;50.722;7.078;2023-03-31T07:39:01;1.70;;;0.70;;
11100;SDS011;5604;50.722;7.078;2023-03-31T07:41:34;0.80;;;0.80;;
11100;SDS011;5604;50.722;7.078;2023-03-31T07:44:03;1.40;;;0.80;;
11100;SDS011;5604;50.722;7.078;2023-03-31T07:46:32;1.40;;;1.00;;
11100;SDS011;5604;50.722;7.078;2023-03-31T07:49:01;2.87;;;0.90;;
11100;SDS011;5604;50.722;7.078;2023-03-31T07:51:33;1.97;;;1.07;;
11100;SDS011;5604;50.722;7.078;2023-03-31T07:54:04;2.20;;;0.90;;
11100;SDS011;5604;50.722;7.078;2023-03-31T07:56:35;1.23;;;1.00;;
11100;SDS011;5604;50.722;7.078;2023-03-31T07:59:06;0.90;;;0.90;;
11100;SDS011;5604;50.722;7.078;2023-03-31T08:01:40;2.43;;;1.00;;
11100;SDS011;5604;50.722;7.078;2023-03-31T08:04:09;2.27;;;1.10;;
11100;SDS011;5604;50.722;7.078;2023-03-31T08:06:42;3.13;;;1.33;;
11100;SDS011;5604;50.722;7.078;2023-03-31T08:09:12;2.50;;;1.43;;
11100;SDS011;5604;50.722;7.078;2023-03-31T08:11:42;3.03;;;1.30;;
11100;SDS011;5604;50.722;7.078;2023-03-31T08:14:13;2.30;;;1.10;;
11100;SDS011;5604;50.722;7.078;2023-03-31T08:17:05;2.50;;;1.00;;
11100;SDS011;5604;50.722;7.078;2023-03-31T08:19:37;3.63;;;1.40;;
11100;SDS011;5604;50.722;7.078;2023-03-31T08:22:07;3.40;;;1.30;;
11100;SDS011;5604;50.722;7.078;2023-03-31T08:24:35;2.17;;;1.17;;
11100;SDS011;5604;50.722;7.078;2023-03-31T08:27:07;3.87;;;1.30;;
11100;SDS011;5604;50.722;7.078;2023-03-31T08:29:41;3.00;;;1.10;;
11100;SDS011;5604;50.722;7.078;2023-03-31T08:32:16;3.27;;;1.30;;
11100;SDS011;5604;50.722;7.078;2023-03-31T08:34:44;2.53;;;1.20;;
11100;SDS011;5604;50.722;7.078;2023-03-31T08:37:16;3.27;;;1.53;;
11100;SDS011;5604;50.722;7.078;2023-03-31T08:39:44;3.13;;;1.33;;
11100;SDS011;5604;50.722;7.078;2023-03-31T08:42:16;4.57;;;1.70;;
11100;SDS011;5604;50.722;7.078;2023-03-31T08:44:53;4.17;;;1.80;;
11100;SDS011;5604;50.722;7.078;2023-03-31T08:47:24;5.23;;;1.87;;
11100;SDS011;5604;50.722;7.078;2023-03-31T08:49:54;3.50;;;1.53;;
11100;SDS011;5604;50.722;7.078;2023-03-31T08:52:28;2.53;;;1.47;;
11100;SDS011;5604;50.722;7.078;2023-03-31T08:54:58;4.73;;;2.00;;
11100;SDS011;5604;50.722;7.078;2023-03-31T08:57:34;4.57;;;1.70;;
11100;SDS011;5604;50.722;7.078;2023-03-31T09:02:46;5.90;;;1.80;;
11100;SDS011;5604;50.722;7.078;2023-03-31T09:05:22;4.53;;;2.10;;
11100;SDS011;5604;50.722;7.078;2023-03-31T09:08:30;6.10;;;1.50;;
11100;SDS011;5604;50.722;7.078;2023-03-31T09:11:03;6.13;;;2.13;;
11100;SDS011;5604;50.722;7.078;2023-03-31T09:13:53;7.10;;;2.17;;
11100;SDS011;5604;50.722;7.078;2023-03-31T09:16:27;6.60;;;1.97;;
11100;SDS011;5604;50.722;7.078;2023-03-31T09:18:59;7.27;;;2.00;;
11100;SDS011;5604;50.722;7.078;2023-03-31T09:21:31;6.43;;;1.80;;
11100;SDS011;5604;50.722;7.078;2023-03-31T09:24:09;6.00;;;2.10;;
11100;SDS011;5604;50.722;7.078;2023-03-31T09:26:41;4.13;;;2.07;;
11100;SDS011;5604;50.722;7.078;2023-03-31T09:29:14;6.27;;;1.93;;
11100;SDS011;5604;50.722;7.078;2023-03-31T09:31:45;7.50;;;2.17;;
11100;SDS011;5604;50.722;7.078;2023-03-31T09:34:14;4.87;;;1.90;;
11100;SDS011;5604;50.722;7.078;2023-03-31T09:36:44;5.90;;;2.50;;
11100;SDS011;5604;50.722;7.078;2023-03-31T09:39:15;5.67;;;1.97;;
11100;SDS011;5604;50.722;7.078;2023-03-31T09:41:43;6.07;;;2.33;;
11100;SDS011;5604;50.722;7.078;2023-03-31T09:44:25;7.90;;;2.43;;
11100;SDS011;5604;50.722;7.078;2023-03-31T09:46:54;5.83;;;2.30;;
11100;SDS011;5604;50.722;7.078;2023-03-31T09:49:23;4.13;;;1.73;;
11100;SDS011;5604;50.722;7.078;2023-03-31T09:52:00;6.43;;;2.13;;
11100;SDS011;5604;50.722;7.078;2023-03-31T09:54:40;6.60;;;2.13;;
11100;SDS011;5604;50.722;7.078;2023-03-31T09:57:14;4.83;;;1.77;;
11100;SDS011;5604;50.722;7.078;2023-03-31T09:59:51;6.73;;;2.10;;
11100;SDS011;5604;50.722;7.078;2023-03-31T10:02:32;7.87;;;2.27;;
11100;SDS011;5604;50.722;7.078;2023-03-31T10:05:03;5.50;;;2.00;;
11100;SDS011;5604;50.722;7.078;2023-03-31T10:07:47;7.43;;;2.13;;
11100;SDS011;5604;50.722;7.078;2023-03-31T10:10:23;6.63;;;2.23;;
11100;SDS011;5604;50.722;7.078;2023-03-31T10:12:58;5.10;;;1.97;;
11100;SDS011;5604;50.722;7.078;2023-03-31T10:15:32;6.33;;;2.23;;
11100;SDS011;5604;50.722;7.078;2023-03-31T10:18:16;6.53;;;2.03;;
11100;SDS011;5604;50.722;7.078;2023-03-31T10:20:47;4.97;;;1.77;;
11100;SDS011;5604;50.722;7.078;2023-03-31T10:23:23;5.80;;;1.77;;
11100;SDS011;5604;50.722;7.078;2023-03-31T10:25:59;8.00;;;2.00;;
11100;SDS011;5604;50.722;7.078;2023-03-31T10:28:30;4.47;;;1.80;;
11100;SDS011;5604;50.722;7.078;2023-03-31T10:31:05;8.30;;;2.37;;
11100;SDS011;5604;50.722;7.078;2023-03-31T10:33:39;8.03;;;2.63;;
11100;SDS011;5604;50.722;7.078;2023-03-31T10:36:14;6.07;;;2.13;;
11100;SDS011;5604;50.722;7.078;2023-03-31T10:38:45;9.00;;;2.23;;
11100;SDS011;5604;50.722;7.078;2023-03-31T10:41:21;7.00;;;1.90;;
11100;SDS011;5604;50.722;7.078;2023-03-31T10:43:51;6.43;;;2.13;;
11100;SDS011;5604;50.722;7.078;2023-03-31T10:46:38;7.87;;;2.43;;
11100;SDS011;5604;50.722;7.078;2023-03-31T10:49:13;9.27;;;2.83;;
11100;SDS011;5604;50.722;7.078;2023-03-31T10:51:49;6.50;;;2.43;;
11100;SDS011;5604;50.722;7.078;2023-03-31T10:54:19;7.40;;;2.03;;
11100;SDS011;5604;50.722;7.078;2023-03-31T10:56:58;5.63;;;2.03;;
11100;SDS011;5604;50.722;7.078;2023-03-31T10:59:35;7.77;;;2.23;;
11100;SDS011;5604;50.722;7.078;2023-03-31T11:05:07;5.80;;;2.00;;
11100;SDS011;5604;50.722;7.078;2023-03-31T11:07:43;6.30;;;2.30;;
11100;SDS011;5604;50.722;7.078;2023-03-31T11:10:25;5.10;;;1.80;;
11100;SDS011;5604;50.722;7.078;2023-03-31T11:13:07;5.93;;;1.80;;
11100;SDS011;5604;50.722;7.078;2023-03-31T11:15:41;6.20;;;2.10;;
11100;SDS011;5604;50.722;7.078;2023-03-31T11:18:22;3.43;;;1.63;;
11100;SDS011;5604;50.722;7.078;2023-03-31T11:20:57;4.67;;;1.70;;
11100;SDS011;5604;50.722;7.078;2023-03-31T11:23:33;6.53;;;1.83;;
11100;SDS011;5604;50.722;7.078;2023-03-31T11:26:11;3.23;;;1.63;;
11100;SDS011;5604;50.722;7.078;2023-03-31T11:28:51;5.33;;;1.80;;
11100;SDS011;5604;50.722;7.078;2023-03-31T11:31:27;2.27;;;1.43;;
11100;SDS011;5604;50.722;7.078;2023-03-31T11:37:09;4.90;;;1.73;;
11100;SDS011;5604;50.722;7.078;2023-03-31T11:39:49;6.00;;;2.43;;
11100;SDS011;5604;50.722;7.078;2023-03-31T11:42:27;4.40;;;1.97;;
11100;SDS011;5604;50.722;7.078;2023-03-31T11:45:04;6.07;;;2.10;;
11100;SDS011;5604;50.722;7.078;2023-03-31T11:47:42;5.47;;;1.97;;
11100;SDS011;5604;50.722;7.078;2023-03-31T11:50:19;5.27;;;2.20;;
11100;SDS011;5604;50.722;7.078;2023-03-31T11:52:53;6.20;;;2.40;;
11100;SDS011;5604;50.722;7.078;2023-03-31T11:55:24;6.27;;;2.53;;
11100;SDS011;5604;50.722;7.078;2023-03-31T11:58:04;7.10;;;2.13;;
11100;SDS011;5604;50.722;7.078;2023-03-31T12:00:37;7.53;;;2.00;;
11100;SDS011;5604;50.722;7.078;2023-03-31T12:03:09;5.97;;;1.70;;
11100;SDS011;5604;50.722;7.078;2023-03-31T12:05:43;3.97;;;1.50;;
11100;SDS011;5604;50.722;7.078;2023-03-31T12:08:21;1.50;;;0.90;;
11100;SDS011;5604;50.722;7.078;2023-03-31T12:11:06;2.43;;;1.07;;
11100;SDS011;5604;50.722;7.078;2023-03-31T12:13:43;3.13;;;0.90;;
11100;SDS011;5604;50.722;7.078;2023-03-31T12:16:16;2.20;;;1.10;;
11100;SDS011;5604;50.722;7.078;2023-03-31T12:18:50;1.23;;;0.90;;
11100;SDS011;5604;50.722;7.078;2023-03-31T12:21:25;2.03;;;1.23;;
11100;SDS011;5604;50.722;7.078;2023-03-31T12:23:56;3.30;;;1.00;;
11100;SDS011;5604;50.722;7.078;2023-03-31T12:26:28;2.23;;;1.07;;
11100;SDS011;5604;50.722;7.078;2023-03-31T12:29:06;2.17;;;1.13;;
11100;SDS011;5604;50.722;7.078;2023-03-31T12:31:40;2.53;;;1.10;;
11100;SDS011;5604;50.722;7.078;2023-03-31T12:34:11;2.20;;;0.93;;
11100;SDS011;5604;50.722;7.078;2023-03-31T12:36:45;2.43;;;1.10;;
11100;SDS011;5604;50.722;7.078;2023-03-31T12:39:27;3.07;;;1.73;;
11100;SDS011;5604;50.722;7.078;2023-03-31T12:42:06;2.73;;;1.50;;
11100;SDS011;5604;50.722;7.078;2023-03-31T12:44:51;3.07;;;1.40;;
11100;SDS011;5604;50.722;7.078;2023-03-31T12:47:33;3.87;;;1.60;;
11100;SDS011;5604;50.722;7.078;2023-03-31T12:53:04;6.17;;;1.93;;
11100;SDS011;5604;50.722;7.078;2023-03-31T12:56:02;6.93;;;1.77;;
11100;SDS011;5604;50.722;7.078;2023-03-31T12:58:38;5.20;;;1.77;;
11100;SDS011;5604;50.722;7.078;2023-03-31T13:01:12;3.97;;;2.00;;
11100;SDS011;5604;50.722;7.078;2023-03-31T13:03:46;3.53;;;1.63;;
11100;SDS011;5604;50.722;7.078;2023-03-31T13:09:40;8.80;;;2.30;;
11100;SDS011;5604;50.722;7.078;2023-03-31T13:12:16;6.20;;;2.33;;
11100;SDS011;5604;50.722;7.078;2023-03-31T13:14:49;5.40;;;2.27;;
11100;SDS011;5604;50.722;7.078;2023-03-31T13:17:21;5.83;;;2.23;;
11100;SDS011;5604;50.722;7.078;2023-03-31T13:19:51;4.63;;;1.80;;
11100;SDS011;5604;50.722;7.078;2023-03-31T13:22:32;5.37;;;1.90;;
11100;SDS011;5604;50.722;7.078;2023-03-31T13:28:17;5.33;;;1.50;;
11100;SDS011;5604;50.722;7.078;2023-03-31T13:30:53;5.07;;;1.80;;
11100;SDS011;5604;50.722;7.078;2023-03-31T13:33:24;3.60;;;1.57;;
11100;SDS011;5604;50.722;7.078;2023-03-31T13:35:56;7.13;;;2.37;;
11100;SDS011;5604;50.722;7.078;2023-03-31T13:38:58;5.23;;;1.77;;
11100;SDS011;5604;50.722;7.078;2023-03-31T13:41:45;3.17;;;1.27;;
11100;SDS011;5604;50.722;7.078;2023-03-31T13:44:25;4.70;;;1.30;;
11100;SDS011;5604;50.722;7.078;2023-03-31T13:47:16;3.80;;;1.50;;
11100;SDS011;5604;50.722;7.078;2023-03-31T13:53:07;8.47;;;2.10;;
11100;SDS011;5604;50.722;7.078;2023-03-31T14:01:47;4.60;;;1.50;;
11100;SDS011;5604;50.722;7.078;2023-03-31T14:04:40;5.20;;;1.87;;
11100;SDS011;5604;50.722;7.078;2023-03-31T14:07:26;4.90;;;1.50;;
11100;SDS011;5604;50.722;7.078;2023-03-31T14:10:03;7.00;;;1.97;;
11100;SDS011;5604;50.722;7.078;2023-03-31T14:12:36;6.60;;;2.13;;
11100;SDS011;5604;50.722;7.078;2023-03-31T14:15:05;4.70;;;2.03;;
11100;SDS011;5604;50.722;7.078;2023-03-31T14:17:42;5.30;;;1.70;;
11100;SDS011;5604;50.722;7.078;2023-03-31T14:23:10;4.60;;;1.30;;
11100;SDS011;5604;50.722;7.078;2023-03-31T14:25:46;4.50;;;1.80;;
11100;SDS011;5604;50.722;7.078;2023-03-31T14:28:26;4.77;;;1.83;;
11100;SDS011;5604;50.722;7.078;2023-03-31T14:31:10;5.60;;;1.87;;
11100;SDS011;5604;50.722;7.078;2023-03-31T14:33:49;3.80;;;1.67;;
11100;SDS011;5604;50.722;7.078;2023-03-31T14:36:28;7.13;;;1.97;;
11100;SDS011;5604;50.722;7.078;2023-03-31T14:39:08;5.20;;;1.50;;
11100;SDS011;5604;50.722;7.078;2023-03-31T14:41:37;5.57;;;1.37;;
11100;SDS011;5604;50.722;7.078;2023-03-31T14:44:11;2.73;;;1.20;;
11100;SDS011;5604;50.722;7.078;2023-03-31T14:46:41;4.37;;;1.23;;
11100;SDS011;5604;50.722;7.078;2023-03-31T14:49:17;3.87;;;1.50;;
11100;SDS011;5604;50.722;7.078;2023-03-31T14:51:50;2.97;;;1.27;;
11100;SDS011;5604;50.722;7.078;2023-03-31T14:54:19;4.47;;;1.20;;
11100;SDS011;5604;50.722;7.078;2023-03-31T14:56:49;2.63;;;1.10;;
11100;SDS011;5604;50.722;7.078;2023-03-31T14:59:19;3.77;;;1.30;;
11100;SDS011;5604;50.722;7.078;2023-03-31T15:01:49;4.03;;;1.90;;
11100;SDS011;5604;50.722;7.078;2023-03-31T15:04:20;4.50;;;1.53;;
11100;SDS011;5604;50.722;7.078;2023-03-31T15:07:04;5.73;;;1.50;;
11100;SDS011;5604;50.722;7.078;2023-03-31T15:09:33;3.23;;;1.50;;
11100;SDS011;5604;50.722;7.078;2023-03-31T15:12:02;2.80;;;1.23;;
11100;SDS011;5604;50.722;7.078;2023-03-31T15:14:32;6.47;;;1.83;;
11100;SDS011;5604;50.722;7.078;2023-03-31T15:17:02;3.80;;;2.30;;
11100;SDS011;5604;50.722;7.078;2023-03-31T15:19:35;4.03;;;1.40;;
11100;SDS011;5604;50.722;7.078;2023-03-31T15:22:09;5.07;;;1.70;;
11100;SDS011;5604;50.722;7.078;2023-03-31T15:24:42;3.47;;;1.80;;
11100;SDS011;5604;50.722;7.078;2023-03-31T15:27:12;6.03;;;2.07;;
11100;SDS011;5604;50.722;7.078;2023-03-31T15:29:55;4.33;;;1.60;;
11100;SDS011;5604;50.722;7.078;2023-03-31T15:32:25;5.27;;;1.53;;
11100;SDS011;5604;50.722;7.078;2023-03-31T15:34:59;2.93;;;1.47;;
11100;SDS011;5604;50.722;7.078;2023-03-31T15:37:50;8.07;;;2.00;;
11100;SDS011;5604;50.722;7.078;2023-03-31T15:40:20;3.63;;;1.40;;
11100;SDS011;5604;50.722;7.078;2023-03-31T15:42:51;3.30;;;1.20;;
11100;SDS011;5604;50.722;7.078;2023-03-31T15:45:49;5.43;;;1.53;;
11100;SDS011;5604;50.722;7.078;2023-03-31T15:48:19;3.37;;;1.33;;
11100;SDS011;5604;50.722;7.078;2023-03-31T15:50:50;2.40;;;1.10;;
11100;SDS011;5604;50.722;7.078;2023-03-31T15:53:21;4.53;;;1.40;;
11100;SDS011;5604;50.722;7.078;2023-03-31T15:55:53;3.17;;;1.27;;
11100;SDS011;5604;50.722;7.078;2023-03-31T15:58:23;3.53;;;1.20;;
11100;SDS011;5604;50.722;7.078;2023-03-31T16:01:14;2.97;;;1.23;;
11100;SDS011;5604;50.722;7.078;2023-03-31T16:03:43;5.03;;;1.70;;
11100;SDS011;5604;50.722;7.078;2023-03-31T16:06:17;4.43;;;1.27;;
11100;SDS011;5604;50.722;7.078;2023-03-31T16:08:49;1.63;;;1.03;;
11100;SDS011;5604;50.722;7.078;2023-03-31T16:11:19;2.13;;;1.37;;
11100;SDS011;5604;50.722;7.078;2023-03-31T16:13:51;1.63;;;0.93;;
11100;SDS011;5604;50.722;7.078;2023-03-31T16:16:26;3.13;;;1.17;;
11100;SDS011;5604;50.722;7.078;2023-03-31T16:18:58;2.77;;;1.00;;